createdAt,value
2022-12-12T00:01:47.726Z,8.60
2022-12-12T00:04:17.048Z,8.87
2022-12-12T00:06:46.129Z,7.67
2022-12-12T00:09:15.230Z,8.27
2022-12-12T00:11:44.323Z,8.60
2022-12-12T00:14:13.685Z,10.67
2022-12-12T00:16:44.144Z,9.20
2022-12-12T00:19:13.293Z,9.00
2022-12-12T00:21:42.369Z,11.30
2022-12-12T00:24:11.370Z,5.40
2022-12-12T00:26:40.277Z,9.30
2022-12-12T00:29:09.524Z,9.27
2022-12-12T00:31:38.476Z,7.23
2022-12-12T00:34:08.711Z,5.97
2022-12-12T00:36:37.660Z,8.33
2022-12-12T00:39:06.895Z,7.73
2022-12-12T00:41:35.807Z,8.53
2022-12-12T00:44:04.708Z,8.30
2022-12-12T00:46:33.637Z,9.97
2022-12-12T00:49:02.588Z,8.23
2022-12-12T00:51:33.135Z,10.03
2022-12-12T00:54:02.545Z,10.10
2022-12-12T00:56:32.701Z,6.60
2022-12-12T00:59:01.610Z,8.10
2022-12-12T01:01:34.349Z,9.90
2022-12-12T01:04:04.744Z,10.23
2022-12-12T01:06:35.072Z,9.27
2022-12-12T01:09:04.043Z,8.27
2022-12-12T01:11:33.124Z,5.43
2022-12-12T01:14:02.069Z,9.77
2022-12-12T01:16:31.315Z,9.93
2022-12-12T01:19:00.225Z,7.90
2022-12-12T01:21:29.127Z,12.77
2022-12-12T01:23:59.460Z,9.90
2022-12-12T01:26:29.117Z,7.77
2022-12-12T01:28:57.818Z,14.97
2022-12-12T01:31:26.265Z,8.03
2022-12-12T01:33:54.939Z,7.93
2022-12-12T01:36:24.038Z,6.97
2022-12-12T01:38:54.465Z,5.87
2022-12-12T01:41:24.961Z,11.87
2022-12-12T01:43:54.119Z,7.80
2022-12-12T01:46:52.766Z,7.70
2022-12-12T01:49:23.489Z,8.27
2022-12-12T01:51:54.522Z,6.00
2022-12-12T01:54:26.494Z,9.63
2022-12-12T01:56:57.329Z,8.67
2022-12-12T01:59:26.582Z,6.10
2022-12-12T02:01:56.028Z,9.60
2022-12-12T02:04:25.351Z,7.97
2022-12-12T02:06:54.578Z,6.17
2022-12-12T02:09:25.134Z,9.97
2022-12-12T02:11:54.813Z,6.40
2022-12-12T02:14:28.304Z,5.00
2022-12-12T02:17:17.135Z,7.43
2022-12-12T02:20:03.854Z,5.90
2022-12-12T02:22:41.724Z,9.10
2022-12-12T02:25:20.061Z,6.93
2022-12-12T02:27:58.336Z,8.87
2022-12-12T02:30:37.013Z,8.23
2022-12-12T02:33:23.846Z,5.67
2022-12-12T02:36:02.169Z,8.07
2022-12-12T02:38:32.661Z,7.30
2022-12-12T02:41:09.478Z,7.63
2022-12-12T02:43:41.086Z,5.07
2022-12-12T02:46:12.911Z,10.73
2022-12-12T02:48:45.848Z,6.07
2022-12-12T02:51:17.126Z,8.07
2022-12-12T02:53:46.756Z,8.30
2022-12-12T02:56:33.766Z,6.17
2022-12-12T02:59:02.135Z,6.37
2022-12-12T03:01:34.964Z,12.10
2022-12-12T03:04:23.123Z,6.27
2022-12-12T03:07:16.444Z,6.13
2022-12-12T03:09:56.633Z,8.03
2022-12-12T03:12:27.848Z,6.47
2022-12-12T03:14:59.140Z,6.80
2022-12-12T03:17:29.122Z,8.53
2022-12-12T03:20:00.829Z,7.20
2022-12-12T03:22:33.300Z,10.80
2022-12-12T03:25:06.335Z,7.10
2022-12-12T03:27:39.474Z,8.70
2022-12-12T03:30:10.158Z,9.37
2022-12-12T03:32:42.899Z,7.40
2022-12-12T03:35:15.309Z,6.10
2022-12-12T03:37:49.088Z,6.27
2022-12-12T03:40:21.763Z,8.47
2022-12-12T03:42:52.948Z,5.67
2022-12-12T03:45:26.557Z,6.37
2022-12-12T03:47:58.905Z,7.03
2022-12-12T03:50:30.280Z,7.50
2022-12-12T03:53:03.040Z,9.67
2022-12-12T03:55:38.449Z,6.80
2022-12-12T03:58:11.741Z,5.20
2022-12-12T04:00:42.376Z,8.33
2022-12-12T04:03:17.748Z,9.80
2022-12-12T04:06:04.644Z,8.70
2022-12-12T04:08:34.944Z,9.57
2022-12-12T04:11:25.099Z,6.93
2022-12-12T04:13:59.603Z,8.80
2022-12-12T04:16:30.862Z,9.37
2022-12-12T04:19:03.078Z,9.27
2022-12-12T04:21:54.588Z,10.07
2022-12-12T04:24:27.630Z,6.27
2022-12-12T04:27:00.557Z,5.20
2022-12-12T04:29:36.756Z,5.87
2022-12-12T04:32:08.768Z,7.23
2022-12-12T04:34:39.229Z,6.70
2022-12-12T04:37:08.887Z,9.43
2022-12-12T04:39:40.631Z,6.10
2022-12-12T04:42:10.716Z,6.50
2022-12-12T04:44:41.751Z,7.60
2022-12-12T04:47:11.093Z,7.60
2022-12-12T04:49:42.703Z,6.60
2022-12-12T04:52:14.263Z,7.30
2022-12-12T04:54:48.922Z,9.23
2022-12-12T04:57:22.128Z,5.10
2022-12-12T04:59:50.541Z,9.67
2022-12-12T05:02:25.377Z,6.60
2022-12-12T05:04:58.534Z,7.73
2022-12-12T05:07:39.310Z,6.50
2022-12-12T05:10:14.128Z,6.37
2022-12-12T05:12:44.490Z,6.57
2022-12-12T05:15:13.882Z,9.80
2022-12-12T05:17:45.542Z,7.80
2022-12-12T05:20:14.228Z,7.17
2022-12-12T05:22:42.294Z,8.47
2022-12-12T05:25:12.337Z,7.17
2022-12-12T05:27:40.582Z,7.93
2022-12-12T05:30:09.804Z,9.10
2022-12-12T05:32:37.869Z,9.03
2022-12-12T05:35:07.163Z,4.10
2022-12-12T05:37:35.171Z,7.03
2022-12-12T05:40:03.197Z,10.60
2022-12-12T05:42:32.555Z,8.70
2022-12-12T05:45:00.839Z,7.47
2022-12-12T05:47:28.791Z,7.97
2022-12-12T05:49:56.817Z,9.00
2022-12-12T05:52:24.851Z,6.50
2022-12-12T05:54:52.911Z,6.40
2022-12-12T05:57:21.166Z,6.83
2022-12-12T05:59:50.575Z,7.37
2022-12-12T06:02:18.808Z,6.80
2022-12-12T06:04:46.884Z,6.73
2022-12-12T06:07:14.949Z,8.60
2022-12-12T06:09:42.990Z,9.40
2022-12-12T06:12:10.979Z,7.13
2022-12-12T06:14:38.956Z,10.90
2022-12-12T06:17:08.331Z,11.67
2022-12-12T06:19:36.378Z,11.13
2022-12-12T06:22:04.587Z,6.43
2022-12-12T06:24:32.649Z,10.07
2022-12-12T06:27:00.940Z,7.30
2022-12-12T06:29:28.936Z,7.43
2022-12-12T06:31:56.980Z,7.53
2022-12-12T06:34:26.496Z,5.93
2022-12-12T06:36:54.572Z,9.43
2022-12-12T06:39:22.689Z,8.33
2022-12-12T06:41:50.723Z,9.37
2022-12-12T06:44:18.881Z,9.00
2022-12-12T06:46:46.954Z,9.47
2022-12-12T06:49:15.013Z,8.70
2022-12-12T06:51:44.959Z,5.93
2022-12-12T06:54:13.388Z,14.40
2022-12-12T06:56:47.719Z,7.07
2022-12-12T06:59:16.717Z,8.97
2022-12-12T07:01:45.105Z,10.10
2022-12-12T07:04:13.971Z,12.70
2022-12-12T07:06:42.103Z,8.53
2022-12-12T07:09:12.114Z,8.83
2022-12-12T07:11:41.569Z,10.57
2022-12-12T07:14:10.943Z,7.03
2022-12-12T07:16:39.349Z,8.60
2022-12-12T07:19:07.400Z,6.90
2022-12-12T07:21:35.441Z,7.80
2022-12-12T07:24:03.455Z,8.53
2022-12-12T07:26:33.157Z,5.50
2022-12-12T07:29:03.731Z,6.40
2022-12-12T07:31:32.088Z,6.80
2022-12-12T07:34:00.157Z,11.40
2022-12-12T07:36:28.259Z,9.10
2022-12-12T07:38:56.256Z,8.90
2022-12-12T07:41:24.268Z,10.90
2022-12-12T07:43:53.743Z,8.67
2022-12-12T07:46:25.528Z,11.23
2022-12-12T07:48:54.374Z,8.93
2022-12-12T07:51:24.078Z,13.20
2022-12-12T07:53:52.179Z,8.30
2022-12-12T07:56:21.358Z,7.37
2022-12-12T07:58:49.863Z,11.40
2022-12-12T08:01:21.877Z,9.27
2022-12-12T08:03:50.639Z,10.93
2022-12-12T08:06:19.813Z,7.80
2022-12-12T08:08:48.746Z,7.73
2022-12-12T08:11:20.243Z,9.83
2022-12-12T08:13:48.683Z,9.00
2022-12-12T08:16:18.583Z,5.83
2022-12-12T08:18:49.036Z,8.17
2022-12-12T08:21:25.384Z,10.33
2022-12-12T08:23:56.956Z,8.30
2022-12-12T08:26:26.260Z,9.13
2022-12-12T08:28:54.769Z,9.53
2022-12-12T08:31:23.868Z,9.80
2022-12-12T08:33:53.676Z,10.27
2022-12-12T08:36:23.738Z,12.33
2022-12-12T08:38:52.343Z,6.83
2022-12-12T08:41:20.838Z,10.43
2022-12-12T08:43:49.139Z,9.57
2022-12-12T08:46:19.179Z,10.77
2022-12-12T08:48:48.090Z,7.20
2022-12-12T08:51:18.349Z,7.37
2022-12-12T08:53:46.960Z,9.27
2022-12-12T08:56:14.963Z,7.33
2022-12-12T08:58:43.051Z,8.50
2022-12-12T09:01:12.274Z,6.90
2022-12-12T09:03:40.821Z,7.40
2022-12-12T09:06:10.183Z,7.13
2022-12-12T09:08:40.125Z,8.33
2022-12-12T09:11:08.727Z,9.57
2022-12-12T09:13:37.733Z,13.07
2022-12-12T09:16:06.426Z,5.30
2022-12-12T09:18:35.066Z,11.40
2022-12-12T09:21:03.340Z,9.60
2022-12-12T09:23:31.625Z,8.50
2022-12-12T09:26:05.904Z,9.63
2022-12-12T09:28:34.339Z,9.50
2022-12-12T09:31:04.874Z,11.37
2022-12-12T09:33:33.034Z,6.00
2022-12-12T09:36:02.317Z,9.97
2022-12-12T09:38:30.600Z,6.73
2022-12-12T09:41:02.561Z,8.77
2022-12-12T09:43:34.812Z,8.10
2022-12-12T09:46:06.091Z,7.27
2022-12-12T09:48:41.916Z,9.57
2022-12-12T09:51:11.629Z,5.93
2022-12-12T09:53:40.829Z,9.90
2022-12-12T09:56:20.585Z,8.60
2022-12-12T09:58:56.976Z,7.77
2022-12-12T10:01:31.257Z,10.80
2022-12-12T10:04:11.983Z,8.07
2022-12-12T10:06:45.037Z,9.43
2022-12-12T10:09:34.809Z,7.40
2022-12-12T10:12:08.624Z,8.17
2022-12-12T10:14:40.349Z,5.33
2022-12-12T10:17:13.048Z,6.80
2022-12-12T10:19:50.234Z,9.77
2022-12-12T10:22:26.761Z,7.10
2022-12-12T10:25:00.802Z,5.27
2022-12-12T10:27:31.138Z,8.30
2022-12-12T10:30:08.074Z,7.80
2022-12-12T10:32:45.726Z,7.73
2022-12-12T10:35:26.416Z,8.87
2022-12-12T10:38:05.138Z,8.83
2022-12-12T10:40:46.688Z,6.17
2022-12-12T10:43:22.364Z,5.83
2022-12-12T10:46:23.503Z,5.53
2022-12-12T10:48:53.671Z,6.87
2022-12-12T10:51:24.993Z,6.67
2022-12-12T10:53:53.344Z,5.43
2022-12-12T10:56:25.356Z,6.43
2022-12-12T10:58:56.661Z,7.80
2022-12-12T11:02:00.323Z,8.57
2022-12-12T11:04:17.263Z,5.57
2022-12-12T11:06:49.604Z,6.67
2022-12-12T11:09:22.816Z,6.03
2022-12-12T11:12:01.638Z,6.53
2022-12-12T11:14:34.838Z,7.47
2022-12-12T11:17:03.234Z,5.67
2022-12-12T11:19:38.798Z,8.60
2022-12-12T11:22:06.939Z,6.10
2022-12-12T11:24:45.115Z,7.03
2022-12-12T11:27:22.430Z,5.13
2022-12-12T11:29:53.944Z,6.93
2022-12-12T11:32:25.523Z,7.10
2022-12-12T11:34:58.425Z,8.87
2022-12-12T11:37:30.113Z,5.80
2022-12-12T11:39:58.698Z,4.27
2022-12-12T11:42:29.334Z,8.37
2022-12-12T11:45:02.428Z,7.27
2022-12-12T11:47:38.292Z,8.40
2022-12-12T11:50:18.817Z,5.13
2022-12-12T11:52:47.142Z,4.50
2022-12-12T11:55:17.514Z,5.30
2022-12-12T11:58:08.119Z,7.37
2022-12-12T12:25:10.049Z,5.23
2022-12-12T12:27:44.204Z,6.37
2022-12-12T12:30:22.746Z,3.57
2022-12-12T12:33:21.101Z,3.90
2022-12-12T12:36:02.191Z,3.07
2022-12-12T12:38:48.431Z,4.50
2022-12-12T12:41:35.204Z,3.07
2022-12-12T12:44:21.126Z,4.60
2022-12-12T12:46:56.932Z,4.77
2022-12-12T12:49:28.415Z,4.80
2022-12-12T12:52:00.239Z,5.43
2022-12-12T12:54:33.378Z,6.67
2022-12-12T12:57:08.366Z,3.37
2022-12-12T12:59:39.839Z,4.13
2022-12-12T13:02:26.793Z,5.87
2022-12-12T13:05:06.813Z,5.33
2022-12-12T13:07:42.301Z,4.97
2022-12-12T13:10:19.452Z,6.30
2022-12-12T13:12:55.099Z,5.63
2022-12-12T13:15:27.949Z,5.53
2022-12-12T13:18:01.449Z,5.20
2022-12-12T13:20:33.732Z,4.20
2022-12-12T13:23:20.460Z,5.73
2022-12-12T13:25:55.496Z,4.70
2022-12-12T13:28:29.175Z,6.23
2022-12-12T13:31:13.638Z,3.30
2022-12-12T13:33:44.552Z,2.60
2022-12-12T13:36:17.892Z,2.73
2022-12-12T13:38:50.464Z,4.90
2022-12-12T13:41:19.048Z,5.17
2022-12-12T13:43:50.139Z,5.90
2022-12-12T13:46:51.610Z,4.63
2022-12-12T13:49:27.600Z,3.47
2022-12-12T13:52:23.821Z,2.83
2022-12-12T13:54:54.655Z,3.53
2022-12-12T13:57:33.511Z,2.90
2022-12-12T14:00:30.517Z,3.30
2022-12-12T14:03:25.080Z,4.30
2022-12-12T14:05:54.835Z,2.90
2022-12-12T14:08:31.903Z,3.20
2022-12-12T14:11:02.802Z,3.23
2022-12-12T14:13:50.942Z,2.70
2022-12-12T14:16:23.326Z,3.83
2022-12-12T14:19:33.381Z,4.60
2022-12-12T14:22:01.605Z,3.10
2022-12-12T14:25:04.929Z,3.77
2022-12-12T14:28:03.740Z,5.87
2022-12-12T14:30:44.262Z,5.40
2022-12-12T14:33:39.980Z,3.20
2022-12-12T14:36:26.640Z,2.87
2022-12-12T14:39:05.494Z,2.50
2022-12-12T14:41:38.587Z,2.80
2022-12-12T14:44:37.164Z,3.10
2022-12-12T14:47:09.043Z,1.93
2022-12-12T14:49:38.476Z,3.70
2022-12-12T14:52:06.696Z,2.70
2022-12-12T14:54:34.727Z,3.80
2022-12-12T14:57:03.273Z,2.23
2022-12-12T14:59:35.131Z,4.33
2022-12-12T15:02:17.038Z,2.37
2022-12-12T15:04:49.877Z,3.00
2022-12-12T15:07:25.671Z,3.90
2022-12-12T15:09:53.842Z,5.10
2022-12-12T15:12:23.697Z,6.30
2022-12-12T15:14:57.552Z,4.10
2022-12-12T15:17:30.243Z,4.47
2022-12-12T15:20:02.969Z,4.63
2022-12-12T15:22:33.577Z,2.87
2022-12-12T15:25:04.482Z,3.63
2022-12-12T15:27:41.921Z,4.60
2022-12-12T15:30:22.861Z,3.27
2022-12-12T15:32:51.135Z,3.53
2022-12-12T15:35:22.922Z,2.73
2022-12-12T15:37:55.910Z,4.23
2022-12-12T15:40:28.101Z,3.40
2022-12-12T15:42:59.337Z,2.80
2022-12-12T15:45:32.575Z,3.73
2022-12-12T15:48:01.135Z,3.20
2022-12-12T15:50:37.464Z,3.03
2022-12-12T15:53:18.071Z,3.38
2022-12-12T15:55:53.770Z,2.40
2022-12-12T15:58:29.237Z,3.00
2022-12-12T16:01:06.368Z,2.80
2022-12-12T16:03:35.149Z,5.10
2022-12-12T16:06:15.240Z,4.53
2022-12-12T16:08:49.188Z,4.30
2022-12-12T16:11:49.432Z,3.83
2022-12-12T16:14:40.043Z,2.90
2022-12-12T16:17:13.133Z,3.37
2022-12-12T16:19:44.194Z,2.53
2022-12-12T16:22:25.155Z,4.27
2022-12-12T16:24:55.619Z,3.40
2022-12-12T16:27:24.222Z,3.30
2022-12-12T16:29:52.422Z,2.80
2022-12-12T16:32:21.409Z,3.63
2022-12-12T16:34:49.795Z,4.50
2022-12-12T16:37:19.992Z,3.40
2022-12-12T16:39:48.307Z,3.27
2022-12-12T16:42:17.742Z,4.10
2022-12-12T16:44:46.528Z,3.30
2022-12-12T16:47:17.066Z,3.60
2022-12-12T16:49:45.584Z,4.50
2022-12-12T16:52:14.750Z,4.13
2022-12-12T16:54:51.127Z,3.60
2022-12-12T16:57:21.541Z,4.00
2022-12-12T16:59:49.589Z,4.03
2022-12-12T17:02:20.817Z,2.00
2022-12-12T17:04:49.327Z,3.27
2022-12-12T17:07:17.732Z,5.20
2022-12-12T17:09:47.112Z,3.30
2022-12-12T17:12:15.674Z,2.73
2022-12-12T17:14:44.035Z,3.40
2022-12-12T17:17:12.057Z,3.60
2022-12-12T17:19:40.209Z,4.00
2022-12-12T17:22:08.331Z,3.60
2022-12-12T17:24:36.328Z,3.97
2022-12-12T17:27:05.656Z,3.73
2022-12-12T17:29:33.739Z,2.33
2022-12-12T17:32:01.768Z,4.20
2022-12-12T17:34:29.771Z,3.20
2022-12-12T17:36:57.771Z,4.80
2022-12-12T17:39:25.731Z,4.90
2022-12-12T17:41:53.689Z,2.77
2022-12-12T17:44:23.768Z,3.03
2022-12-12T17:46:51.697Z,2.53
2022-12-12T17:49:20.040Z,3.10
2022-12-12T17:51:48.039Z,3.00
2022-12-12T17:54:21.059Z,3.43
2022-12-12T17:56:50.512Z,3.50
2022-12-12T17:59:18.570Z,3.90
2022-12-12T18:01:53.690Z,4.57
2022-12-12T18:04:27.706Z,4.40
2022-12-12T18:06:57.726Z,3.40
2022-12-12T18:09:26.487Z,3.03
2022-12-12T18:11:54.697Z,4.27
2022-12-12T18:14:22.787Z,2.77
2022-12-12T18:16:53.418Z,4.33
2022-12-12T18:19:22.700Z,3.33
2022-12-12T18:22:00.889Z,2.70
2022-12-12T18:24:30.376Z,4.27
2022-12-12T18:27:00.248Z,3.80
2022-12-12T18:29:28.671Z,3.30
2022-12-12T18:31:58.229Z,4.37
2022-12-12T18:34:26.463Z,3.70
2022-12-12T18:36:54.738Z,2.80
2022-12-12T18:39:22.771Z,3.40
2022-12-12T18:41:51.985Z,3.30
2022-12-12T18:44:20.245Z,3.50
2022-12-12T18:46:50.719Z,3.60
2022-12-12T18:49:20.355Z,4.07
2022-12-12T18:51:49.012Z,5.60
2022-12-12T18:54:18.484Z,4.67
2022-12-12T18:56:47.777Z,4.20
2022-12-12T18:59:16.443Z,3.50
2022-12-12T19:01:44.702Z,4.70
2022-12-12T19:04:20.902Z,5.73
2022-12-12T19:06:52.576Z,5.03
2022-12-12T19:09:21.697Z,3.97
2022-12-12T19:11:49.765Z,3.53
2022-12-12T19:14:18.311Z,4.13
2022-12-12T19:16:46.791Z,5.90
2022-12-12T19:19:15.539Z,4.00
2022-12-12T19:21:43.942Z,4.33
2022-12-12T19:24:13.790Z,3.50
2022-12-12T19:26:44.670Z,3.57
2022-12-12T19:29:14.496Z,3.70
2022-12-12T19:31:43.000Z,6.40
2022-12-12T19:34:13.177Z,3.40
2022-12-12T19:36:41.422Z,5.40
2022-12-12T19:39:11.473Z,5.00
2022-12-12T19:41:40.831Z,4.40
2022-12-12T19:44:12.540Z,3.97
2022-12-12T19:46:42.228Z,4.97
2022-12-12T19:49:12.766Z,7.27
2022-12-12T19:51:40.940Z,4.30
2022-12-12T19:54:10.632Z,4.30
2022-12-12T19:56:41.675Z,5.33
2022-12-12T19:59:12.054Z,5.20
2022-12-12T20:01:40.213Z,4.30
2022-12-12T20:04:09.911Z,5.10
2022-12-12T20:06:45.323Z,4.07
2022-12-12T20:09:14.361Z,5.33
2022-12-12T20:11:45.306Z,5.77
2022-12-12T20:14:14.226Z,6.17
2022-12-12T20:16:42.274Z,6.27
2022-12-12T20:19:10.962Z,6.43
2022-12-12T20:24:28.979Z,3.60
2022-12-12T20:26:59.410Z,5.47
2022-12-12T20:29:27.599Z,6.00
2022-12-12T20:31:55.621Z,4.53
2022-12-12T20:34:24.824Z,4.90
2022-12-12T20:36:55.485Z,5.23
2022-12-12T20:39:25.077Z,5.10
2022-12-12T20:41:54.282Z,5.73
2022-12-12T20:44:25.714Z,6.50
2022-12-12T20:46:54.168Z,5.27
2022-12-12T20:49:24.673Z,5.67
2022-12-12T20:51:56.447Z,4.87
2022-12-12T20:54:27.365Z,5.40
2022-12-12T20:56:56.047Z,4.47
2022-12-12T20:59:26.168Z,5.20
2022-12-12T21:01:54.543Z,3.90
2022-12-12T21:04:24.327Z,5.57
2022-12-12T21:06:53.374Z,5.40
2022-12-12T21:09:26.505Z,4.53
2022-12-12T21:11:57.848Z,6.17
2022-12-12T21:14:30.564Z,7.50
2022-12-12T21:16:58.892Z,12.13
2022-12-12T21:19:28.304Z,4.67
2022-12-12T21:21:57.731Z,6.10
2022-12-12T21:24:27.675Z,3.40
2022-12-12T21:26:57.097Z,5.60
2022-12-12T21:29:26.428Z,4.87
2022-12-12T21:31:57.258Z,6.27
2022-12-12T21:34:26.614Z,6.07
2022-12-12T21:36:56.255Z,5.00
2022-12-12T21:39:26.791Z,3.70
2022-12-12T21:41:56.347Z,5.63
2022-12-12T21:44:25.801Z,5.03
2022-12-12T21:46:55.189Z,3.50
2022-12-12T21:49:30.797Z,6.17
2022-12-12T21:52:01.101Z,5.47
2022-12-12T21:54:31.078Z,6.53
2022-12-12T21:57:01.003Z,5.77
2022-12-12T21:59:30.443Z,6.80
2022-12-12T22:02:00.655Z,7.97
2022-12-12T22:04:31.545Z,8.97
2022-12-12T22:07:01.168Z,5.73
2022-12-12T22:09:30.515Z,5.13
2022-12-12T22:12:04.139Z,5.40
2022-12-12T22:14:34.511Z,7.80
2022-12-12T22:17:04.152Z,7.43
2022-12-12T22:19:34.779Z,4.00
2022-12-12T22:22:04.067Z,8.33
2022-12-12T22:24:33.296Z,5.90
2022-12-12T22:27:03.133Z,5.13
2022-12-12T22:29:32.471Z,6.13
2022-12-12T22:32:01.688Z,5.70
2022-12-12T22:34:30.962Z,6.40
2022-12-12T22:37:01.759Z,9.53
2022-12-12T22:39:31.288Z,4.13
2022-12-12T22:42:00.879Z,6.53
2022-12-12T22:44:30.348Z,4.17
2022-12-12T22:46:59.761Z,4.20
2022-12-12T22:49:29.499Z,5.50
2022-12-12T22:52:00.046Z,5.40
2022-12-12T22:54:30.753Z,4.90
2022-12-12T22:57:00.166Z,4.97
2022-12-12T22:59:29.472Z,5.97
2022-12-12T23:01:58.743Z,4.10
2022-12-12T23:04:28.115Z,3.33
2022-12-12T23:06:57.449Z,8.43
2022-12-12T23:09:26.990Z,4.37
2022-12-12T23:11:57.812Z,7.60
2022-12-12T23:14:28.015Z,5.77
2022-12-12T23:16:57.446Z,4.77
2022-12-12T23:19:28.978Z,6.30
2022-12-12T23:21:58.322Z,5.33
2022-12-12T23:24:27.630Z,5.10
2022-12-12T23:26:58.285Z,6.47
2022-12-12T23:29:27.719Z,5.77
2022-12-12T23:31:58.682Z,4.83
2022-12-12T23:34:28.254Z,4.60
2022-12-12T23:36:58.183Z,5.30
2022-12-12T23:39:28.357Z,5.13
2022-12-12T23:41:58.048Z,4.70
2022-12-12T23:44:26.453Z,5.23
2022-12-12T23:46:54.758Z,3.13
2022-12-12T23:49:25.123Z,6.83
2022-12-12T23:51:55.602Z,3.80
2022-12-12T23:54:26.741Z,5.37
2022-12-12T23:56:57.153Z,5.37
2022-12-12T23:59:28.405Z,5.20
